sensor_id;sensor_type;location;lat;lon;timestamp;P1;durP1;ratioP1;P2;durP2;ratioP2
46719;SDS011;32452;51.382;-0.002;2022-11-15T00:01:33;8.68;;;2.33;;
46719;SDS011;32452;51.382;-0.002;2022-11-15T00:04:19;10.05;;;2.17;;
46719;SDS011;32452;51.382;-0.002;2022-11-15T00:07:06;7.22;;;1.60;;
46719;SDS011;32452;51.382;-0.002;2022-11-15T00:09:52;7.72;;;1.60;;
46719;SDS011;32452;51.382;-0.002;2022-11-15T00:12:37;9.75;;;2.28;;
46719;SDS011;32452;51.382;-0.002;2022-11-15T00:15:23;10.57;;;1.75;;
46719;SDS011;32452;51.382;-0.002;2022-11-15T00:18:12;7.90;;;1.45;;
46719;SDS011;32452;51.382;-0.002;2022-11-15T00:21:13;6.22;;;1.30;;
46719;SDS011;32452;51.382;-0.002;2022-11-15T00:23:59;11.85;;;1.70;;
46719;SDS011;32452;51.382;-0.002;2022-11-15T00:26:44;6.60;;;1.55;;
46719;SDS011;32452;51.382;-0.002;2022-11-15T00:29:30;9.73;;;2.00;;
46719;SDS011;32452;51.382;-0.002;2022-11-15T00:32:15;5.85;;;1.42;;
46719;SDS011;32452;51.382;-0.002;2022-11-15T00:35:01;6.78;;;2.35;;
46719;SDS011;32452;51.382;-0.002;2022-11-15T00:37:46;11.30;;;2.65;;
46719;SDS011;32452;51.382;-0.002;2022-11-15T00:40:32;8.85;;;1.77;;
46719;SDS011;32452;51.382;-0.002;2022-11-15T00:43:18;9.63;;;1.73;;
46719;SDS011;32452;51.382;-0.002;2022-11-15T00:46:04;12.45;;;1.80;;
46719;SDS011;32452;51.382;-0.002;2022-11-15T00:48:50;10.68;;;2.15;;
46719;SDS011;32452;51.382;-0.002;2022-11-15T00:51:56;14.25;;;1.90;;
46719;SDS011;32452;51.382;-0.002;2022-11-15T00:55:22;13.13;;;1.92;;
46719;SDS011;32452;51.382;-0.002;2022-11-15T00:58:44;7.30;;;1.63;;
46719;SDS011;32452;51.382;-0.002;2022-11-15T01:01:48;6.68;;;1.90;;
46719;SDS011;32452;51.382;-0.002;2022-11-15T01:04:51;7.32;;;1.30;;
46719;SDS011;32452;51.382;-0.002;2022-11-15T01:08:11;10.20;;;1.75;;
46719;SDS011;32452;51.382;-0.002;2022-11-15T01:11:16;14.35;;;2.45;;
46719;SDS011;32452;51.382;-0.002;2022-11-15T01:14:26;6.50;;;1.83;;
46719;SDS011;32452;51.382;-0.002;2022-11-15T01:17:22;9.25;;;1.85;;
46719;SDS011;32452;51.382;-0.002;2022-11-15T01:20:41;13.35;;;1.63;;
46719;SDS011;32452;51.382;-0.002;2022-11-15T01:24:11;12.80;;;2.10;;
46719;SDS011;32452;51.382;-0.002;2022-11-15T01:28:20;9.38;;;1.60;;
46719;SDS011;32452;51.382;-0.002;2022-11-15T01:31:13;9.40;;;1.13;;
46719;SDS011;32452;51.382;-0.002;2022-11-15T01:34:31;10.75;;;1.85;;
46719;SDS011;32452;51.382;-0.002;2022-11-15T01:37:38;9.00;;;1.48;;
46719;SDS011;32452;51.382;-0.002;2022-11-15T01:40:31;9.57;;;1.48;;
46719;SDS011;32452;51.382;-0.002;2022-11-15T01:43:26;15.43;;;2.10;;
46719;SDS011;32452;51.382;-0.002;2022-11-15T01:47:03;16.95;;;3.95;;
46719;SDS011;32452;51.382;-0.002;2022-11-15T01:50:29;5.93;;;1.35;;
46719;SDS011;32452;51.382;-0.002;2022-11-15T01:53:36;7.95;;;2.10;;
46719;SDS011;32452;51.382;-0.002;2022-11-15T01:56:53;9.63;;;1.65;;
46719;SDS011;32452;51.382;-0.002;2022-11-15T01:59:46;12.13;;;1.88;;
46719;SDS011;32452;51.382;-0.002;2022-11-15T02:02:49;9.60;;;1.73;;
46719;SDS011;32452;51.382;-0.002;2022-11-15T02:10:39;10.13;;;1.33;;
46719;SDS011;32452;51.382;-0.002;2022-11-15T02:13:24;15.25;;;1.98;;
46719;SDS011;32452;51.382;-0.002;2022-11-15T02:16:18;6.35;;;1.95;;
46719;SDS011;32452;51.382;-0.002;2022-11-15T02:19:12;9.07;;;1.00;;
46719;SDS011;32452;51.382;-0.002;2022-11-15T02:29:07;8.63;;;1.75;;
46719;SDS011;32452;51.382;-0.002;2022-11-15T02:32:03;11.27;;;3.28;;
46719;SDS011;32452;51.382;-0.002;2022-11-15T02:35:07;9.20;;;1.83;;
46719;SDS011;32452;51.382;-0.002;2022-11-15T02:41:23;7.30;;;1.65;;
46719;SDS011;32452;51.382;-0.002;2022-11-15T02:44:23;9.77;;;1.75;;
46719;SDS011;32452;51.382;-0.002;2022-11-15T02:47:17;9.10;;;1.38;;
46719;SDS011;32452;51.382;-0.002;2022-11-15T02:50:06;11.95;;;1.40;;
46719;SDS011;32452;51.382;-0.002;2022-11-15T02:52:54;9.25;;;1.77;;
46719;SDS011;32452;51.382;-0.002;2022-11-15T02:55:44;10.13;;;1.35;;
46719;SDS011;32452;51.382;-0.002;2022-11-15T02:59:38;10.52;;;1.52;;
46719;SDS011;32452;51.382;-0.002;2022-11-15T03:07:51;10.85;;;1.95;;
46719;SDS011;32452;51.382;-0.002;2022-11-15T03:17:22;16.30;;;2.05;;
46719;SDS011;32452;51.382;-0.002;2022-11-15T03:20:24;7.72;;;1.55;;
46719;SDS011;32452;51.382;-0.002;2022-11-15T03:23:11;8.95;;;1.88;;
46719;SDS011;32452;51.382;-0.002;2022-11-15T03:25:58;10.57;;;1.80;;
46719;SDS011;32452;51.382;-0.002;2022-11-15T03:28:49;17.30;;;1.77;;
46719;SDS011;32452;51.382;-0.002;2022-11-15T03:32:00;11.25;;;1.70;;
46719;SDS011;32452;51.382;-0.002;2022-11-15T03:40:35;10.23;;;2.03;;
46719;SDS011;32452;51.382;-0.002;2022-11-15T03:43:35;11.02;;;1.98;;
46719;SDS011;32452;51.382;-0.002;2022-11-15T03:46:36;14.63;;;2.30;;
46719;SDS011;32452;51.382;-0.002;2022-11-15T03:49:38;8.48;;;2.78;;
46719;SDS011;32452;51.382;-0.002;2022-11-15T03:52:36;15.45;;;2.25;;
46719;SDS011;32452;51.382;-0.002;2022-11-15T03:55:22;13.75;;;2.92;;
46719;SDS011;32452;51.382;-0.002;2022-11-15T03:58:07;10.88;;;1.88;;
46719;SDS011;32452;51.382;-0.002;2022-11-15T04:00:53;11.00;;;2.28;;
46719;SDS011;32452;51.382;-0.002;2022-11-15T04:03:42;16.23;;;2.33;;
46719;SDS011;32452;51.382;-0.002;2022-11-15T04:06:28;14.27;;;2.13;;
46719;SDS011;32452;51.382;-0.002;2022-11-15T04:09:13;12.93;;;1.73;;
46719;SDS011;32452;51.382;-0.002;2022-11-15T04:12:02;14.13;;;3.20;;
46719;SDS011;32452;51.382;-0.002;2022-11-15T04:15:01;14.45;;;3.00;;
46719;SDS011;32452;51.382;-0.002;2022-11-15T04:17:57;12.73;;;2.47;;
46719;SDS011;32452;51.382;-0.002;2022-11-15T04:20:42;9.88;;;1.90;;
46719;SDS011;32452;51.382;-0.002;2022-11-15T04:23:47;10.77;;;2.13;;
46719;SDS011;32452;51.382;-0.002;2022-11-15T04:26:51;12.30;;;2.75;;
46719;SDS011;32452;51.382;-0.002;2022-11-15T04:29:37;9.55;;;1.80;;
46719;SDS011;32452;51.382;-0.002;2022-11-15T04:32:22;13.48;;;2.28;;
46719;SDS011;32452;51.382;-0.002;2022-11-15T04:35:08;8.43;;;1.80;;
46719;SDS011;32452;51.382;-0.002;2022-11-15T04:38:15;11.80;;;2.70;;
46719;SDS011;32452;51.382;-0.002;2022-11-15T04:41:15;17.02;;;2.17;;
46719;SDS011;32452;51.382;-0.002;2022-11-15T04:44:01;15.38;;;2.03;;
46719;SDS011;32452;51.382;-0.002;2022-11-15T04:46:46;11.98;;;2.45;;
46719;SDS011;32452;51.382;-0.002;2022-11-15T04:49:32;11.02;;;1.60;;
46719;SDS011;32452;51.382;-0.002;2022-11-15T04:52:18;11.93;;;2.28;;
46719;SDS011;32452;51.382;-0.002;2022-11-15T04:55:05;13.95;;;1.75;;
46719;SDS011;32452;51.382;-0.002;2022-11-15T04:57:59;13.68;;;2.05;;
46719;SDS011;32452;51.382;-0.002;2022-11-15T05:00:45;11.73;;;1.85;;
46719;SDS011;32452;51.382;-0.002;2022-11-15T05:03:30;10.75;;;2.10;;
46719;SDS011;32452;51.382;-0.002;2022-11-15T05:09:20;15.85;;;2.97;;
46719;SDS011;32452;51.382;-0.002;2022-11-15T05:12:05;15.73;;;2.22;;
46719;SDS011;32452;51.382;-0.002;2022-11-15T05:14:51;13.13;;;2.85;;
46719;SDS011;32452;51.382;-0.002;2022-11-15T05:17:38;14.85;;;2.13;;
46719;SDS011;32452;51.382;-0.002;2022-11-15T05:20:23;15.18;;;2.88;;
46719;SDS011;32452;51.382;-0.002;2022-11-15T05:23:09;15.80;;;2.03;;
46719;SDS011;32452;51.382;-0.002;2022-11-15T05:25:58;15.10;;;2.13;;
46719;SDS011;32452;51.382;-0.002;2022-11-15T05:28:53;17.13;;;2.22;;
46719;SDS011;32452;51.382;-0.002;2022-11-15T05:31:40;10.25;;;2.22;;
46719;SDS011;32452;51.382;-0.002;2022-11-15T05:34:27;11.43;;;2.45;;
46719;SDS011;32452;51.382;-0.002;2022-11-15T05:37:13;19.30;;;3.30;;
46719;SDS011;32452;51.382;-0.002;2022-11-15T05:39:59;16.88;;;2.88;;
46719;SDS011;32452;51.382;-0.002;2022-11-15T05:42:44;14.65;;;2.22;;
46719;SDS011;32452;51.382;-0.002;2022-11-15T05:45:31;18.50;;;3.40;;
46719;SDS011;32452;51.382;-0.002;2022-11-15T05:48:18;15.18;;;3.80;;
46719;SDS011;32452;51.382;-0.002;2022-11-15T05:51:04;12.15;;;2.63;;
46719;SDS011;32452;51.382;-0.002;2022-11-15T05:53:51;13.88;;;2.40;;
46719;SDS011;32452;51.382;-0.002;2022-11-15T05:56:39;11.68;;;1.83;;
46719;SDS011;32452;51.382;-0.002;2022-11-15T05:59:25;18.52;;;2.92;;
46719;SDS011;32452;51.382;-0.002;2022-11-15T06:02:12;16.13;;;2.80;;
46719;SDS011;32452;51.382;-0.002;2022-11-15T06:04:58;13.82;;;2.92;;
46719;SDS011;32452;51.382;-0.002;2022-11-15T06:07:43;15.68;;;3.22;;
46719;SDS011;32452;51.382;-0.002;2022-11-15T06:10:29;16.15;;;2.53;;
46719;SDS011;32452;51.382;-0.002;2022-11-15T06:13:14;15.07;;;4.13;;
46719;SDS011;32452;51.382;-0.002;2022-11-15T06:16:00;14.30;;;2.75;;
46719;SDS011;32452;51.382;-0.002;2022-11-15T06:18:45;13.93;;;1.90;;
46719;SDS011;32452;51.382;-0.002;2022-11-15T06:21:31;11.93;;;3.13;;
46719;SDS011;32452;51.382;-0.002;2022-11-15T06:24:17;15.48;;;2.38;;
46719;SDS011;32452;51.382;-0.002;2022-11-15T06:27:02;15.23;;;3.30;;
46719;SDS011;32452;51.382;-0.002;2022-11-15T06:29:48;13.23;;;2.40;;
46719;SDS011;32452;51.382;-0.002;2022-11-15T06:32:33;10.27;;;1.83;;
46719;SDS011;32452;51.382;-0.002;2022-11-15T06:35:18;9.35;;;1.88;;
46719;SDS011;32452;51.382;-0.002;2022-11-15T06:38:05;17.17;;;2.60;;
46719;SDS011;32452;51.382;-0.002;2022-11-15T06:40:52;15.57;;;2.55;;
46719;SDS011;32452;51.382;-0.002;2022-11-15T06:43:38;14.20;;;2.20;;
46719;SDS011;32452;51.382;-0.002;2022-11-15T06:46:24;12.73;;;2.78;;
46719;SDS011;32452;51.382;-0.002;2022-11-15T06:49:10;12.10;;;2.47;;
46719;SDS011;32452;51.382;-0.002;2022-11-15T06:51:55;15.05;;;2.70;;
46719;SDS011;32452;51.382;-0.002;2022-11-15T06:54:41;20.95;;;3.05;;
46719;SDS011;32452;51.382;-0.002;2022-11-15T06:57:26;15.70;;;2.70;;
46719;SDS011;32452;51.382;-0.002;2022-11-15T07:00:12;20.15;;;2.58;;
46719;SDS011;32452;51.382;-0.002;2022-11-15T07:03:01;11.45;;;2.03;;
46719;SDS011;32452;51.382;-0.002;2022-11-15T07:05:54;12.35;;;2.42;;
46719;SDS011;32452;51.382;-0.002;2022-11-15T07:08:47;17.60;;;3.20;;
46719;SDS011;32452;51.382;-0.002;2022-11-15T07:11:32;13.48;;;3.13;;
46719;SDS011;32452;51.382;-0.002;2022-11-15T07:14:18;13.70;;;3.13;;
46719;SDS011;32452;51.382;-0.002;2022-11-15T07:17:04;13.35;;;2.13;;
46719;SDS011;32452;51.382;-0.002;2022-11-15T07:19:50;22.90;;;3.05;;
46719;SDS011;32452;51.382;-0.002;2022-11-15T07:22:35;10.95;;;1.98;;
46719;SDS011;32452;51.382;-0.002;2022-11-15T07:25:21;19.17;;;2.85;;
46719;SDS011;32452;51.382;-0.002;2022-11-15T07:28:06;14.82;;;3.30;;
46719;SDS011;32452;51.382;-0.002;2022-11-15T07:30:52;12.65;;;2.22;;
46719;SDS011;32452;51.382;-0.002;2022-11-15T07:33:38;8.45;;;1.73;;
46719;SDS011;32452;51.382;-0.002;2022-11-15T07:36:23;9.30;;;1.88;;
46719;SDS011;32452;51.382;-0.002;2022-11-15T07:39:08;7.28;;;2.03;;
46719;SDS011;32452;51.382;-0.002;2022-11-15T07:41:54;16.95;;;2.03;;
46719;SDS011;32452;51.382;-0.002;2022-11-15T07:45:00;10.88;;;2.45;;
46719;SDS011;32452;51.382;-0.002;2022-11-15T07:47:46;9.88;;;2.40;;
46719;SDS011;32452;51.382;-0.002;2022-11-15T07:50:32;13.43;;;2.72;;
46719;SDS011;32452;51.382;-0.002;2022-11-15T07:53:17;6.65;;;2.22;;
46719;SDS011;32452;51.382;-0.002;2022-11-15T07:56:05;2.88;;;1.08;;
46719;SDS011;32452;51.382;-0.002;2022-11-15T07:58:51;11.82;;;2.13;;
46719;SDS011;32452;51.382;-0.002;2022-11-15T08:01:37;9.27;;;2.28;;
46719;SDS011;32452;51.382;-0.002;2022-11-15T08:04:23;6.47;;;1.77;;
46719;SDS011;32452;51.382;-0.002;2022-11-15T08:07:08;10.45;;;1.50;;
46719;SDS011;32452;51.382;-0.002;2022-11-15T08:09:54;7.20;;;1.40;;
46719;SDS011;32452;51.382;-0.002;2022-11-15T08:12:39;12.82;;;2.17;;
46719;SDS011;32452;51.382;-0.002;2022-11-15T08:15:25;9.70;;;1.48;;
46719;SDS011;32452;51.382;-0.002;2022-11-15T08:18:14;5.90;;;1.83;;
46719;SDS011;32452;51.382;-0.002;2022-11-15T08:21:01;5.28;;;1.35;;
46719;SDS011;32452;51.382;-0.002;2022-11-15T08:23:47;9.93;;;1.67;;
46719;SDS011;32452;51.382;-0.002;2022-11-15T08:26:32;11.90;;;1.42;;
46719;SDS011;32452;51.382;-0.002;2022-11-15T08:29:18;5.13;;;1.10;;
46719;SDS011;32452;51.382;-0.002;2022-11-15T08:32:03;7.07;;;1.63;;
46719;SDS011;32452;51.382;-0.002;2022-11-15T08:34:49;3.67;;;1.02;;
46719;SDS011;32452;51.382;-0.002;2022-11-15T08:37:35;8.27;;;1.20;;
46719;SDS011;32452;51.382;-0.002;2022-11-15T08:40:20;7.50;;;1.58;;
46719;SDS011;32452;51.382;-0.002;2022-11-15T08:43:07;6.60;;;1.23;;
46719;SDS011;32452;51.382;-0.002;2022-11-15T08:45:55;6.28;;;1.48;;
46719;SDS011;32452;51.382;-0.002;2022-11-15T08:48:41;3.00;;;0.95;;
46719;SDS011;32452;51.382;-0.002;2022-11-15T08:51:27;2.25;;;0.80;;
46719;SDS011;32452;51.382;-0.002;2022-11-15T08:54:12;2.85;;;0.90;;
46719;SDS011;32452;51.382;-0.002;2022-11-15T08:56:58;3.67;;;0.90;;
46719;SDS011;32452;51.382;-0.002;2022-11-15T08:59:44;0.90;;;0.57;;
46719;SDS011;32452;51.382;-0.002;2022-11-15T09:02:29;4.25;;;0.90;;
46719;SDS011;32452;51.382;-0.002;2022-11-15T09:05:15;2.78;;;0.82;;
46719;SDS011;32452;51.382;-0.002;2022-11-15T09:08:00;2.78;;;0.50;;
46719;SDS011;32452;51.382;-0.002;2022-11-15T09:11:07;1.08;;;0.60;;
46719;SDS011;32452;51.382;-0.002;2022-11-15T09:13:53;3.13;;;0.52;;
46719;SDS011;32452;51.382;-0.002;2022-11-15T09:16:39;0.45;;;0.45;;
46719;SDS011;32452;51.382;-0.002;2022-11-15T09:19:25;2.08;;;0.75;;
46719;SDS011;32452;51.382;-0.002;2022-11-15T09:22:10;6.40;;;1.30;;
46719;SDS011;32452;51.382;-0.002;2022-11-15T09:24:56;3.35;;;0.60;;
46719;SDS011;32452;51.382;-0.002;2022-11-15T09:27:43;2.38;;;1.45;;
46719;SDS011;32452;51.382;-0.002;2022-11-15T09:30:29;0.95;;;0.40;;
46719;SDS011;32452;51.382;-0.002;2022-11-15T09:33:14;1.70;;;0.38;;
46719;SDS011;32452;51.382;-0.002;2022-11-15T09:36:00;1.67;;;0.50;;
46719;SDS011;32452;51.382;-0.002;2022-11-15T09:38:48;1.75;;;0.55;;
46719;SDS011;32452;51.382;-0.002;2022-11-15T09:41:38;0.55;;;0.45;;
46719;SDS011;32452;51.382;-0.002;2022-11-15T09:50:31;4.45;;;0.70;;
46719;SDS011;32452;51.382;-0.002;2022-11-15T09:53:56;3.80;;;0.65;;
46719;SDS011;32452;51.382;-0.002;2022-11-15T09:57:20;5.13;;;1.20;;
46719;SDS011;32452;51.382;-0.002;2022-11-15T10:00:12;1.73;;;0.82;;
46719;SDS011;32452;51.382;-0.002;2022-11-15T10:03:23;4.97;;;0.95;;
46719;SDS011;32452;51.382;-0.002;2022-11-15T10:06:25;3.83;;;1.10;;
46719;SDS011;32452;51.382;-0.002;2022-11-15T10:09:23;4.88;;;1.38;;
46719;SDS011;32452;51.382;-0.002;2022-11-15T10:12:14;6.65;;;1.05;;
46719;SDS011;32452;51.382;-0.002;2022-11-15T10:15:05;7.97;;;1.35;;
46719;SDS011;32452;51.382;-0.002;2022-11-15T10:23:35;6.45;;;2.13;;
46719;SDS011;32452;51.382;-0.002;2022-11-15T10:26:20;6.53;;;1.73;;
46719;SDS011;32452;51.382;-0.002;2022-11-15T10:29:08;3.25;;;1.42;;
46719;SDS011;32452;51.382;-0.002;2022-11-15T10:31:53;6.47;;;2.00;;
46719;SDS011;32452;51.382;-0.002;2022-11-15T10:34:40;8.88;;;2.58;;
46719;SDS011;32452;51.382;-0.002;2022-11-15T10:37:30;10.18;;;2.70;;
46719;SDS011;32452;51.382;-0.002;2022-11-15T10:40:18;5.97;;;2.33;;
46719;SDS011;32452;51.382;-0.002;2022-11-15T10:45:54;10.13;;;3.88;;
46719;SDS011;32452;51.382;-0.002;2022-11-15T10:48:40;6.57;;;1.55;;
46719;SDS011;32452;51.382;-0.002;2022-11-15T10:51:26;8.52;;;1.98;;
46719;SDS011;32452;51.382;-0.002;2022-11-15T10:54:13;7.82;;;1.92;;
46719;SDS011;32452;51.382;-0.002;2022-11-15T10:57:10;8.80;;;2.03;;
46719;SDS011;32452;51.382;-0.002;2022-11-15T11:00:00;3.03;;;1.35;;
46719;SDS011;32452;51.382;-0.002;2022-11-15T11:05:41;6.22;;;2.40;;
46719;SDS011;32452;51.382;-0.002;2022-11-15T11:08:27;3.38;;;1.00;;
46719;SDS011;32452;51.382;-0.002;2022-11-15T11:11:13;4.18;;;1.20;;
46719;SDS011;32452;51.382;-0.002;2022-11-15T11:14:03;4.20;;;1.27;;
46719;SDS011;32452;51.382;-0.002;2022-11-15T11:17:05;7.32;;;1.20;;
46719;SDS011;32452;51.382;-0.002;2022-11-15T11:35:20;3.80;;;0.93;;
46719;SDS011;32452;51.382;-0.002;2022-11-15T11:46:56;3.58;;;1.23;;
46719;SDS011;32452;51.382;-0.002;2022-11-15T11:49:52;2.38;;;0.68;;
46719;SDS011;32452;51.382;-0.002;2022-11-15T11:52:57;4.82;;;0.85;;
46719;SDS011;32452;51.382;-0.002;2022-11-15T11:55:54;4.00;;;0.80;;
46719;SDS011;32452;51.382;-0.002;2022-11-15T11:58:44;2.30;;;0.90;;
46719;SDS011;32452;51.382;-0.002;2022-11-15T12:01:37;2.92;;;1.02;;
46719;SDS011;32452;51.382;-0.002;2022-11-15T12:04:29;8.50;;;1.33;;
46719;SDS011;32452;51.382;-0.002;2022-11-15T12:07:24;1.92;;;0.65;;
46719;SDS011;32452;51.382;-0.002;2022-11-15T12:10:24;6.93;;;0.93;;
46719;SDS011;32452;51.382;-0.002;2022-11-15T12:13:19;8.23;;;1.60;;
46719;SDS011;32452;51.382;-0.002;2022-11-15T12:16:22;10.10;;;1.30;;
46719;SDS011;32452;51.382;-0.002;2022-11-15T12:19:11;8.63;;;1.60;;
46719;SDS011;32452;51.382;-0.002;2022-11-15T12:24:56;7.50;;;1.60;;
46719;SDS011;32452;51.382;-0.002;2022-11-15T12:27:49;4.65;;;1.30;;
46719;SDS011;32452;51.382;-0.002;2022-11-15T12:33:42;5.05;;;1.20;;
46719;SDS011;32452;51.382;-0.002;2022-11-15T12:36:34;5.30;;;1.48;;
46719;SDS011;32452;51.382;-0.002;2022-11-15T12:42:57;7.63;;;1.55;;
46719;SDS011;32452;51.382;-0.002;2022-11-15T12:45:45;6.03;;;1.17;;
46719;SDS011;32452;51.382;-0.002;2022-11-15T12:51:20;5.47;;;1.20;;
46719;SDS011;32452;51.382;-0.002;2022-11-15T13:02:46;8.57;;;1.95;;
46719;SDS011;32452;51.382;-0.002;2022-11-15T13:08:38;6.07;;;2.00;;
46719;SDS011;32452;51.382;-0.002;2022-11-15T13:11:41;7.20;;;1.13;;
46719;SDS011;32452;51.382;-0.002;2022-11-15T13:14:39;6.63;;;1.05;;
46719;SDS011;32452;51.382;-0.002;2022-11-15T13:17:30;2.78;;;1.00;;
46719;SDS011;32452;51.382;-0.002;2022-11-15T13:31:47;4.25;;;1.02;;
46719;SDS011;32452;51.382;-0.002;2022-11-15T13:34:33;9.13;;;2.50;;
46719;SDS011;32452;51.382;-0.002;2022-11-15T13:37:36;3.70;;;1.05;;
46719;SDS011;32452;51.382;-0.002;2022-11-15T13:40:26;5.15;;;1.45;;
46719;SDS011;32452;51.382;-0.002;2022-11-15T13:46:17;15.45;;;2.25;;
46719;SDS011;32452;51.382;-0.002;2022-11-15T13:49:04;5.32;;;1.40;;
46719;SDS011;32452;51.382;-0.002;2022-11-15T13:51:56;8.20;;;2.22;;
46719;SDS011;32452;51.382;-0.002;2022-11-15T13:57:53;10.45;;;1.48;;
46719;SDS011;32452;51.382;-0.002;2022-11-15T14:00:44;9.55;;;1.40;;
46719;SDS011;32452;51.382;-0.002;2022-11-15T14:03:31;6.50;;;1.35;;
46719;SDS011;32452;51.382;-0.002;2022-11-15T14:06:20;8.13;;;1.65;;
46719;SDS011;32452;51.382;-0.002;2022-11-15T14:12:31;9.90;;;1.70;;
46719;SDS011;32452;51.382;-0.002;2022-11-15T14:15:38;11.27;;;1.77;;
46719;SDS011;32452;51.382;-0.002;2022-11-15T14:21:31;12.10;;;2.03;;
46719;SDS011;32452;51.382;-0.002;2022-11-15T14:24:17;7.68;;;1.55;;
46719;SDS011;32452;51.382;-0.002;2022-11-15T14:27:21;5.40;;;1.48;;
46719;SDS011;32452;51.382;-0.002;2022-11-15T14:30:15;12.75;;;1.27;;
46719;SDS011;32452;51.382;-0.002;2022-11-15T14:33:24;6.45;;;1.65;;
46719;SDS011;32452;51.382;-0.002;2022-11-15T14:36:16;8.73;;;1.52;;
46719;SDS011;32452;51.382;-0.002;2022-11-15T14:39:04;11.50;;;1.75;;
46719;SDS011;32452;51.382;-0.002;2022-11-15T14:41:50;6.68;;;1.30;;
46719;SDS011;32452;51.382;-0.002;2022-11-15T14:44:35;10.43;;;2.20;;
46719;SDS011;32452;51.382;-0.002;2022-11-15T14:47:26;8.85;;;1.55;;
46719;SDS011;32452;51.382;-0.002;2022-11-15T14:50:15;9.95;;;1.88;;
46719;SDS011;32452;51.382;-0.002;2022-11-15T14:53:03;11.55;;;1.90;;
46719;SDS011;32452;51.382;-0.002;2022-11-15T14:55:49;9.55;;;1.83;;
46719;SDS011;32452;51.382;-0.002;2022-11-15T14:58:35;10.27;;;1.60;;
46719;SDS011;32452;51.382;-0.002;2022-11-15T15:04:09;12.43;;;2.22;;
46719;SDS011;32452;51.382;-0.002;2022-11-15T15:06:56;10.48;;;1.80;;
46719;SDS011;32452;51.382;-0.002;2022-11-15T15:09:41;16.48;;;2.17;;
46719;SDS011;32452;51.382;-0.002;2022-11-15T15:12:27;11.50;;;1.73;;
46719;SDS011;32452;51.382;-0.002;2022-11-15T15:15:17;11.27;;;1.70;;
46719;SDS011;32452;51.382;-0.002;2022-11-15T15:18:08;9.50;;;2.42;;
46719;SDS011;32452;51.382;-0.002;2022-11-15T15:20:57;8.13;;;1.90;;
46719;SDS011;32452;51.382;-0.002;2022-11-15T15:23:52;11.27;;;1.50;;
46719;SDS011;32452;51.382;-0.002;2022-11-15T15:26:41;11.18;;;1.73;;
46719;SDS011;32452;51.382;-0.002;2022-11-15T15:29:28;10.85;;;1.92;;
46719;SDS011;32452;51.382;-0.002;2022-11-15T15:32:14;7.22;;;1.50;;
46719;SDS011;32452;51.382;-0.002;2022-11-15T15:34:59;11.13;;;2.35;;
46719;SDS011;32452;51.382;-0.002;2022-11-15T15:37:45;13.75;;;2.10;;
46719;SDS011;32452;51.382;-0.002;2022-11-15T15:40:32;13.52;;;2.30;;
46719;SDS011;32452;51.382;-0.002;2022-11-15T15:43:18;12.60;;;2.17;;
46719;SDS011;32452;51.382;-0.002;2022-11-15T15:46:04;10.27;;;1.85;;
46719;SDS011;32452;51.382;-0.002;2022-11-15T15:48:53;15.27;;;3.50;;
46719;SDS011;32452;51.382;-0.002;2022-11-15T15:51:39;11.15;;;2.13;;
46719;SDS011;32452;51.382;-0.002;2022-11-15T15:54:24;10.18;;;1.75;;
46719;SDS011;32452;51.382;-0.002;2022-11-15T15:57:11;12.45;;;2.05;;
46719;SDS011;32452;51.382;-0.002;2022-11-15T15:59:58;7.63;;;1.65;;
46719;SDS011;32452;51.382;-0.002;2022-11-15T16:02:44;10.48;;;1.70;;
46719;SDS011;32452;51.382;-0.002;2022-11-15T16:05:31;11.45;;;2.35;;
46719;SDS011;32452;51.382;-0.002;2022-11-15T16:08:21;12.93;;;2.22;;
46719;SDS011;32452;51.382;-0.002;2022-11-15T16:11:07;12.88;;;2.42;;
46719;SDS011;32452;51.382;-0.002;2022-11-15T16:13:54;14.02;;;2.67;;
46719;SDS011;32452;51.382;-0.002;2022-11-15T16:16:40;16.65;;;2.33;;
46719;SDS011;32452;51.382;-0.002;2022-11-15T16:19:25;16.73;;;2.97;;
46719;SDS011;32452;51.382;-0.002;2022-11-15T16:22:11;9.10;;;1.77;;
46719;SDS011;32452;51.382;-0.002;2022-11-15T16:24:56;17.35;;;2.55;;
46719;SDS011;32452;51.382;-0.002;2022-11-15T16:27:42;13.48;;;2.47;;
46719;SDS011;32452;51.382;-0.002;2022-11-15T16:30:29;10.40;;;1.80;;
46719;SDS011;32452;51.382;-0.002;2022-11-15T16:33:15;15.40;;;2.22;;
46719;SDS011;32452;51.382;-0.002;2022-11-15T16:36:03;11.98;;;2.03;;
46719;SDS011;32452;51.382;-0.002;2022-11-15T16:38:50;9.43;;;1.80;;
46719;SDS011;32452;51.382;-0.002;2022-11-15T16:41:36;11.07;;;1.80;;
46719;SDS011;32452;51.382;-0.002;2022-11-15T16:44:22;16.73;;;2.60;;
46719;SDS011;32452;51.382;-0.002;2022-11-15T16:47:16;15.25;;;3.58;;
46719;SDS011;32452;51.382;-0.002;2022-11-15T16:50:11;19.73;;;3.00;;
46719;SDS011;32452;51.382;-0.002;2022-11-15T16:53:08;11.90;;;2.75;;
46719;SDS011;32452;51.382;-0.002;2022-11-15T16:55:53;11.65;;;2.50;;
46719;SDS011;32452;51.382;-0.002;2022-11-15T16:58:40;16.58;;;2.65;;
46719;SDS011;32452;51.382;-0.002;2022-11-15T17:01:27;14.43;;;2.65;;
46719;SDS011;32452;51.382;-0.002;2022-11-15T17:04:18;18.08;;;3.60;;
46719;SDS011;32452;51.382;-0.002;2022-11-15T17:07:06;19.27;;;4.32;;
46719;SDS011;32452;51.382;-0.002;2022-11-15T17:09:53;14.25;;;2.80;;
46719;SDS011;32452;51.382;-0.002;2022-11-15T17:12:39;12.23;;;2.58;;
46719;SDS011;32452;51.382;-0.002;2022-11-15T17:15:24;11.18;;;1.98;;
46719;SDS011;32452;51.382;-0.002;2022-11-15T17:18:11;15.50;;;1.90;;
46719;SDS011;32452;51.382;-0.002;2022-11-15T17:20:57;16.65;;;2.80;;
46719;SDS011;32452;51.382;-0.002;2022-11-15T17:24:00;23.17;;;5.57;;
46719;SDS011;32452;51.382;-0.002;2022-11-15T17:26:46;16.27;;;3.17;;
46719;SDS011;32452;51.382;-0.002;2022-11-15T17:29:32;13.68;;;3.45;;
46719;SDS011;32452;51.382;-0.002;2022-11-15T17:32:20;11.70;;;2.85;;
46719;SDS011;32452;51.382;-0.002;2022-11-15T17:35:05;13.57;;;2.67;;
46719;SDS011;32452;51.382;-0.002;2022-11-15T17:38:02;18.55;;;3.85;;
46719;SDS011;32452;51.382;-0.002;2022-11-15T17:40:48;11.13;;;2.67;;
46719;SDS011;32452;51.382;-0.002;2022-11-15T17:43:43;12.63;;;1.90;;
46719;SDS011;32452;51.382;-0.002;2022-11-15T17:46:28;16.35;;;2.30;;
46719;SDS011;32452;51.382;-0.002;2022-11-15T17:49:14;15.00;;;2.38;;
46719;SDS011;32452;51.382;-0.002;2022-11-15T17:52:00;12.20;;;2.38;;
46719;SDS011;32452;51.382;-0.002;2022-11-15T17:54:46;7.80;;;2.13;;
46719;SDS011;32452;51.382;-0.002;2022-11-15T17:57:31;11.68;;;2.00;;
46719;SDS011;32452;51.382;-0.002;2022-11-15T18:00:17;9.80;;;1.58;;
46719;SDS011;32452;51.382;-0.002;2022-11-15T18:03:04;13.13;;;1.92;;
46719;SDS011;32452;51.382;-0.002;2022-11-15T18:05:50;8.93;;;1.48;;
46719;SDS011;32452;51.382;-0.002;2022-11-15T18:08:35;7.78;;;1.17;;
46719;SDS011;32452;51.382;-0.002;2022-11-15T18:11:23;7.07;;;1.30;;
46719;SDS011;32452;51.382;-0.002;2022-11-15T18:14:14;4.38;;;1.42;;
46719;SDS011;32452;51.382;-0.002;2022-11-15T18:16:59;6.75;;;1.40;;
46719;SDS011;32452;51.382;-0.002;2022-11-15T18:19:45;2.75;;;1.23;;
46719;SDS011;32452;51.382;-0.002;2022-11-15T18:22:31;7.70;;;1.10;;
46719;SDS011;32452;51.382;-0.002;2022-11-15T18:25:16;5.75;;;1.73;;
46719;SDS011;32452;51.382;-0.002;2022-11-15T18:28:03;4.65;;;1.90;;
46719;SDS011;32452;51.382;-0.002;2022-11-15T18:30:48;2.97;;;1.13;;
46719;SDS011;32452;51.382;-0.002;2022-11-15T18:33:34;9.10;;;1.55;;
46719;SDS011;32452;51.382;-0.002;2022-11-15T18:36:21;6.20;;;1.15;;
46719;SDS011;32452;51.382;-0.002;2022-11-15T18:39:08;7.78;;;1.48;;
46719;SDS011;32452;51.382;-0.002;2022-11-15T18:41:59;7.50;;;1.23;;
46719;SDS011;32452;51.382;-0.002;2022-11-15T18:44:45;9.82;;;1.70;;
46719;SDS011;32452;51.382;-0.002;2022-11-15T18:47:30;7.32;;;2.17;;
46719;SDS011;32452;51.382;-0.002;2022-11-15T18:50:16;8.65;;;1.67;;
46719;SDS011;32452;51.382;-0.002;2022-11-15T18:53:01;10.63;;;1.88;;
46719;SDS011;32452;51.382;-0.002;2022-11-15T18:55:47;6.05;;;1.23;;